createdAt,value
2023-02-12T00:04:40.510Z,6.40
2023-02-12T00:07:12.765Z,6.40
2023-02-12T00:09:57.364Z,6.40
2023-02-12T00:12:29.870Z,6.50
2023-02-12T00:14:58.741Z,6.50
2023-02-12T00:17:29.314Z,6.40
2023-02-12T00:27:36.636Z,6.50
2023-02-12T00:30:05.773Z,6.60
2023-02-12T00:32:38.905Z,6.50
2023-02-12T00:40:05.458Z,6.50
2023-02-12T00:47:36.628Z,6.50
2023-02-12T00:50:06.522Z,6.50
2023-02-12T00:52:36.277Z,6.60
2023-02-12T00:55:07.971Z,6.50
2023-02-12T01:02:36.772Z,6.50
2023-02-12T01:05:05.667Z,6.50
2023-02-12T01:15:04.795Z,6.60
2023-02-12T01:17:33.472Z,6.60
2023-02-12T01:20:07.189Z,6.50
2023-02-12T01:22:38.857Z,6.50
2023-02-12T01:25:08.319Z,6.50
2023-02-12T01:27:38.962Z,6.40
2023-02-12T01:30:12.958Z,6.40
2023-02-12T01:35:14.153Z,6.40
2023-02-12T01:40:20.062Z,6.40
2023-02-12T01:45:48.889Z,6.40
2023-02-12T01:48:19.900Z,6.40
2023-02-12T01:50:56.462Z,6.50
2023-02-12T01:53:37.007Z,6.50
2023-02-12T01:58:39.183Z,6.40
2023-02-12T02:01:11.421Z,6.50
2023-02-12T02:03:44.004Z,6.50
2023-02-12T02:06:21.433Z,6.50
2023-02-12T02:11:43.382Z,6.40
2023-02-12T02:17:10.058Z,6.40
2023-02-12T02:20:13.225Z,6.40
2023-02-12T02:23:06.043Z,6.40
2023-02-12T02:26:06.015Z,6.40
2023-02-12T02:28:59.351Z,6.40
2023-02-12T02:31:37.774Z,6.40
2023-02-12T02:34:13.457Z,6.40
2023-02-12T02:36:59.827Z,6.40
2023-02-12T02:39:37.739Z,6.40
2023-02-12T02:42:12.285Z,6.40
2023-02-12T02:44:46.442Z,6.40
2023-02-12T02:47:20.632Z,6.40
2023-02-12T02:49:53.203Z,6.40
2023-02-12T02:52:38.909Z,6.30
2023-02-12T02:55:16.316Z,6.40
2023-02-12T02:57:50.160Z,6.30
2023-02-12T03:00:29.062Z,6.30
2023-02-12T03:03:06.480Z,6.20
2023-02-12T03:05:39.967Z,6.30
2023-02-12T03:08:14.985Z,6.30
2023-02-12T03:10:48.855Z,6.30
2023-02-12T03:13:36.770Z,6.20
2023-02-12T03:16:13.436Z,6.10
2023-02-12T03:18:52.678Z,6.20
2023-02-12T03:21:31.535Z,6.20
2023-02-12T03:24:07.510Z,6.10
2023-02-12T03:26:42.876Z,6.20
2023-02-12T03:29:16.125Z,6.00
2023-02-12T03:32:08.391Z,6.10
2023-02-12T03:34:50.221Z,6.30
2023-02-12T03:37:23.969Z,6.10
2023-02-12T03:40:03.018Z,6.20
2023-02-12T03:42:40.115Z,6.10
2023-02-12T03:45:16.291Z,6.20
2023-02-12T03:47:50.814Z,6.20
2023-02-12T03:50:31.006Z,6.10
2023-02-12T03:53:02.386Z,6.20
2023-02-12T03:55:33.949Z,6.20
2023-02-12T03:58:04.516Z,6.20
2023-02-12T04:03:04.601Z,6.10
2023-02-12T04:05:35.444Z,6.30
2023-02-12T04:08:05.333Z,6.20
2023-02-12T04:10:40.037Z,6.20
2023-02-12T04:13:20.230Z,6.20
2023-02-12T04:15:58.831Z,6.20
2023-02-12T04:18:37.466Z,6.20
2023-02-12T04:21:15.278Z,6.20
2023-02-12T04:23:53.915Z,6.10
2023-02-12T04:26:37.297Z,6.20
2023-02-12T04:29:26.756Z,6.20
2023-02-12T04:31:59.391Z,5.70
2023-02-12T04:34:37.076Z,6.10
2023-02-12T04:37:14.179Z,5.50
2023-02-12T04:39:46.398Z,6.20
2023-02-12T04:42:18.125Z,6.20
2023-02-12T04:44:47.363Z,6.20
2023-02-12T04:47:18.396Z,6.20
2023-02-12T04:52:22.817Z,6.20
2023-02-12T04:54:54.721Z,6.20
2023-02-12T04:59:53.211Z,6.10
2023-02-12T05:09:58.299Z,6.30
2023-02-12T05:12:35.195Z,6.10
2023-02-12T05:22:33.026Z,6.10
2023-02-12T05:25:02.274Z,6.10
2023-02-12T05:27:34.191Z,6.00
2023-02-12T05:37:44.458Z,5.60
2023-02-12T05:40:13.562Z,5.70
2023-02-12T05:50:18.818Z,5.80
2023-02-12T05:52:57.080Z,5.80
2023-02-12T05:55:27.498Z,5.80
2023-02-12T06:00:27.547Z,5.90
2023-02-12T06:02:59.420Z,5.80
2023-02-12T06:05:39.033Z,5.90
2023-02-12T06:08:12.872Z,5.90
2023-02-12T06:10:44.314Z,4.40
2023-02-12T06:13:14.173Z,5.90
2023-02-12T06:15:48.307Z,6.10
2023-02-12T06:23:28.898Z,5.80
2023-02-12T06:25:58.670Z,5.90
2023-02-12T06:28:30.943Z,5.70
2023-02-12T06:33:33.114Z,5.90
2023-02-12T06:36:05.128Z,5.90
2023-02-12T06:38:36.339Z,5.90
2023-02-12T06:48:35.386Z,5.90
2023-02-12T06:51:13.911Z,6.00
2023-02-12T06:56:16.631Z,6.00
2023-02-12T06:58:48.823Z,6.00
2023-02-12T07:01:19.288Z,6.80
2023-02-12T07:03:52.131Z,6.10
2023-02-12T07:06:22.702Z,6.10
2023-02-12T07:08:52.571Z,6.10
2023-02-12T07:11:25.098Z,6.30
2023-02-12T07:16:26.555Z,6.10
2023-02-12T07:23:57.198Z,6.20
2023-02-12T07:31:30.934Z,6.50
2023-02-12T07:34:03.035Z,6.60
2023-02-12T07:36:32.886Z,6.60
2023-02-12T07:39:08.120Z,6.70
2023-02-12T07:44:10.403Z,6.80
2023-02-12T07:46:41.664Z,6.80
2023-02-12T07:49:17.566Z,6.80
2023-02-12T07:54:19.762Z,6.80
2023-02-12T07:59:21.622Z,6.80
2023-02-12T08:01:51.880Z,6.80
2023-02-12T08:04:27.776Z,6.90
2023-02-12T08:06:57.416Z,6.80
2023-02-12T08:09:31.430Z,6.80
2023-02-12T08:17:01.996Z,7.00
2023-02-12T08:24:32.450Z,7.10
2023-02-12T08:27:00.796Z,7.10
2023-02-12T08:29:44.368Z,7.20
2023-02-12T08:34:46.828Z,7.30
2023-02-12T08:49:52.751Z,7.30
2023-02-12T08:52:22.829Z,7.30
2023-02-12T08:54:52.730Z,7.30
2023-02-12T09:09:57.414Z,7.50
2023-02-12T09:24:58.434Z,8.50
2023-02-12T09:29:59.160Z,7.60
2023-02-12T09:42:52.415Z,7.90
2023-02-12T09:45:31.710Z,7.90
2023-02-12T09:48:12.211Z,8.00
2023-02-12T09:50:52.119Z,7.90
2023-02-12T09:53:28.326Z,8.00
2023-02-12T09:56:00.269Z,8.10
2023-02-12T09:58:36.341Z,8.20
2023-02-12T10:01:14.222Z,8.30
2023-02-12T10:03:46.046Z,6.20
2023-02-12T10:06:19.203Z,8.30
2023-02-12T10:08:57.920Z,8.30
2023-02-12T10:12:03.896Z,8.10
2023-02-12T10:14:59.693Z,8.20
2023-02-12T10:17:39.381Z,8.40
2023-02-12T10:20:29.241Z,8.40
2023-02-12T10:23:19.443Z,8.50
2023-02-12T10:25:53.860Z,8.50
2023-02-12T10:28:31.336Z,8.60
2023-02-12T10:31:03.875Z,8.60
2023-02-12T10:33:40.035Z,8.60
2023-02-12T10:36:20.215Z,8.60
2023-02-12T10:38:53.103Z,8.70
2023-02-12T10:41:25.617Z,8.80
2023-02-12T10:44:03.108Z,9.00
2023-02-12T10:49:03.650Z,9.10
2023-02-12T10:51:52.094Z,9.10
2023-02-12T10:54:46.724Z,9.00
2023-02-12T10:57:27.844Z,9.10
2023-02-12T11:00:18.340Z,9.20
2023-02-12T11:03:07.465Z,9.30
2023-02-12T11:05:55.625Z,9.80
2023-02-12T11:08:37.557Z,9.50
2023-02-12T11:11:14.433Z,9.70
2023-02-12T11:13:50.435Z,10.40
2023-02-12T11:16:53.736Z,9.70
2023-02-12T11:19:31.901Z,12.00
2023-02-12T11:22:09.300Z,9.80
2023-02-12T11:24:43.234Z,9.80
2023-02-12T11:27:33.288Z,9.90
2023-02-12T11:30:21.976Z,9.90
2023-02-12T11:32:52.860Z,9.90
2023-02-12T11:35:28.809Z,10.10
2023-02-12T11:38:04.064Z,10.10
2023-02-12T11:40:39.284Z,10.10
2023-02-12T11:43:20.976Z,10.20
2023-02-12T11:46:01.113Z,10.30
2023-02-12T11:48:50.170Z,10.30
2023-02-12T11:51:33.867Z,11.00
2023-02-12T11:54:09.370Z,10.40
2023-02-12T11:56:50.913Z,10.30
2023-02-12T11:59:43.116Z,10.60
2023-02-12T12:02:27.747Z,10.70
2023-02-12T12:05:09.721Z,10.70
2023-02-12T12:07:51.662Z,10.80
2023-02-12T12:10:35.461Z,10.90
2023-02-12T12:13:12.246Z,10.70
2023-02-12T12:16:04.029Z,10.90
2023-02-12T12:21:58.305Z,10.80
2023-02-12T12:24:41.911Z,10.70
2023-02-12T12:27:39.395Z,10.70
2023-02-12T12:30:18.325Z,10.80
2023-02-12T12:32:49.340Z,11.10
2023-02-12T12:35:29.502Z,11.20
2023-02-12T12:38:05.661Z,11.00
2023-02-12T12:40:54.518Z,10.80
2023-02-12T12:46:59.093Z,11.10
2023-02-12T12:49:45.484Z,10.90
2023-02-12T12:52:46.971Z,10.90
2023-02-12T12:55:45.609Z,10.50
2023-02-12T12:58:30.986Z,11.00
2023-02-12T13:01:19.715Z,11.20
2023-02-12T13:04:38.544Z,10.90
2023-02-12T13:07:31.567Z,11.10
2023-02-12T13:10:23.134Z,11.20
2023-02-12T13:13:07.017Z,11.00
2023-02-12T13:15:50.264Z,11.00
2023-02-12T13:18:30.030Z,11.00
2023-02-12T13:21:20.850Z,10.80
2023-02-12T13:23:55.512Z,11.20
2023-02-12T13:26:31.510Z,11.30
2023-02-12T13:29:12.284Z,11.40
2023-02-12T13:31:59.265Z,11.40
2023-02-12T13:34:38.398Z,11.80
2023-02-12T13:37:33.528Z,11.70
2023-02-12T13:40:10.184Z,11.60
2023-02-12T13:42:51.344Z,11.50
2023-02-12T13:45:56.132Z,11.30
2023-02-12T13:48:41.894Z,11.30
2023-02-12T13:51:30.553Z,11.30
2023-02-12T13:54:22.906Z,11.10
2023-02-12T13:56:53.663Z,11.00
2023-02-12T14:02:42.713Z,10.80
2023-02-12T14:08:05.753Z,10.80
2023-02-12T14:10:54.442Z,10.70
2023-02-12T14:13:36.637Z,10.80
2023-02-12T14:16:35.152Z,10.80
2023-02-12T14:19:40.437Z,10.80
2023-02-12T14:22:15.839Z,10.90
2023-02-12T14:24:52.912Z,10.90
2023-02-12T14:27:37.129Z,11.00
2023-02-12T14:30:33.812Z,10.90
2023-02-12T14:33:27.890Z,11.10
2023-02-12T14:36:19.923Z,11.10
2023-02-12T14:39:06.699Z,11.10
2023-02-12T14:41:42.003Z,11.20
2023-02-12T14:44:48.961Z,11.90
2023-02-12T14:47:48.576Z,11.10
2023-02-12T14:50:23.148Z,11.20
2023-02-12T14:53:00.624Z,11.10
2023-02-12T14:55:35.357Z,11.20
2023-02-12T14:58:11.519Z,11.00
2023-02-12T15:00:41.606Z,11.00
2023-02-12T15:03:24.316Z,10.80
2023-02-12T15:06:01.846Z,10.90
2023-02-12T15:08:44.501Z,10.90
2023-02-12T15:11:37.927Z,10.80
2023-02-12T15:14:09.207Z,11.00
2023-02-12T15:16:49.740Z,11.00
2023-02-12T15:19:40.537Z,11.00
2023-02-12T15:22:22.082Z,11.00
2023-02-12T15:27:23.879Z,10.90
2023-02-12T15:29:59.497Z,11.00
2023-02-12T15:32:31.134Z,10.90
2023-02-12T15:37:33.552Z,10.90
2023-02-12T15:40:08.507Z,10.90
2023-02-12T15:42:43.269Z,10.80
2023-02-12T15:45:25.476Z,10.80
2023-02-12T15:48:33.338Z,11.20
2023-02-12T15:51:13.202Z,11.20
2023-02-12T15:53:47.442Z,11.60
2023-02-12T15:56:20.441Z,12.00
2023-02-12T15:58:53.933Z,12.10
2023-02-12T16:01:42.172Z,11.90
2023-02-12T16:06:41.928Z,11.40
2023-02-12T16:09:23.482Z,10.20
2023-02-12T16:14:29.434Z,10.30
2023-02-12T16:17:00.909Z,10.00
2023-02-12T16:19:38.571Z,9.80
2023-02-12T16:22:19.557Z,9.60
2023-02-12T16:24:53.691Z,9.40
2023-02-12T16:27:25.517Z,11.30
2023-02-12T16:30:08.397Z,9.30
2023-02-12T16:32:46.950Z,9.10
2023-02-12T16:38:01.087Z,9.00
2023-02-12T16:40:38.938Z,8.90
2023-02-12T16:43:27.202Z,8.70
2023-02-12T16:46:12.831Z,8.70
2023-02-12T16:48:44.141Z,8.60
2023-02-12T16:51:24.763Z,8.50
2023-02-12T16:54:05.452Z,8.40
2023-02-12T16:56:39.860Z,8.30
2023-02-12T17:01:43.945Z,8.10
2023-02-12T17:04:21.877Z,8.00
2023-02-12T17:14:24.545Z,8.50
2023-02-12T17:17:02.846Z,7.70
2023-02-12T17:32:16.414Z,7.40
2023-02-12T17:39:50.823Z,7.30
2023-02-12T17:44:51.655Z,7.20
2023-02-12T17:47:28.703Z,6.50
2023-02-12T17:50:00.499Z,7.10
2023-02-12T17:55:07.750Z,7.00
2023-02-12T18:00:21.500Z,6.60
2023-02-12T18:02:53.352Z,6.90
2023-02-12T18:12:54.220Z,6.70
2023-02-12T18:17:56.895Z,6.60
2023-02-12T18:25:27.370Z,6.50
2023-02-12T18:30:25.497Z,6.40
2023-02-12T18:33:00.606Z,6.40
2023-02-12T18:38:10.495Z,6.30
2023-02-12T18:40:42.231Z,6.30
2023-02-12T18:45:42.487Z,6.20
2023-02-12T18:48:14.159Z,6.20
2023-02-12T18:55:47.387Z,6.00
2023-02-12T19:00:49.597Z,6.00
2023-02-12T19:03:21.845Z,5.90
2023-02-12T19:05:52.165Z,5.80
2023-02-12T19:10:53.278Z,5.80
2023-02-12T19:13:27.156Z,5.80
2023-02-12T19:15:57.580Z,5.70
2023-02-12T19:18:35.160Z,5.70
2023-02-12T19:21:12.390Z,5.60
2023-02-12T19:26:38.894Z,5.50
2023-02-12T19:29:18.814Z,5.40
2023-02-12T19:31:53.607Z,5.40
2023-02-12T19:39:34.215Z,5.20
2023-02-12T19:49:42.208Z,4.80
2023-02-12T19:52:12.616Z,4.80
2023-02-12T19:54:43.196Z,4.70
2023-02-12T20:02:15.378Z,4.60
2023-02-12T20:04:45.906Z,4.40
2023-02-12T20:12:17.534Z,4.30
2023-02-12T20:17:20.286Z,4.20
2023-02-12T20:19:57.585Z,4.20
2023-02-12T20:22:26.726Z,5.20
2023-02-12T20:29:56.053Z,3.90
2023-02-12T20:34:56.306Z,3.90
2023-02-12T20:40:00.142Z,3.80
2023-02-12T20:50:12.991Z,3.70
2023-02-12T20:52:42.488Z,3.60
2023-02-12T20:55:24.447Z,2.70
2023-02-12T20:58:00.159Z,3.60
2023-02-12T21:00:50.809Z,3.40
2023-02-12T21:06:05.996Z,3.50
2023-02-12T21:08:39.506Z,3.50
2023-02-12T21:11:15.439Z,3.50
2023-02-12T21:14:02.537Z,3.40
2023-02-12T21:16:45.514Z,3.30
2023-02-12T21:19:28.024Z,3.40
2023-02-12T21:22:06.501Z,3.70
2023-02-12T21:24:42.642Z,3.30
2023-02-12T21:27:37.211Z,3.40
2023-02-12T21:30:32.905Z,3.70
2023-02-12T21:33:03.596Z,3.30
2023-02-12T21:35:42.257Z,3.30
2023-02-12T21:38:13.276Z,3.30
2023-02-12T21:40:49.974Z,2.90
2023-02-12T21:45:52.284Z,3.30
2023-02-12T21:48:23.257Z,3.40
2023-02-12T21:50:55.631Z,3.40
2023-02-12T21:53:30.915Z,3.60
2023-02-12T21:56:07.372Z,3.40
2023-02-12T22:01:15.916Z,3.60
2023-02-12T22:04:03.858Z,3.30
2023-02-12T22:06:36.210Z,3.30
2023-02-12T22:09:09.193Z,3.30
2023-02-12T22:11:39.643Z,3.30
2023-02-12T22:14:13.445Z,3.40
2023-02-12T22:16:44.215Z,3.30
2023-02-12T22:21:45.745Z,3.40
2023-02-12T22:24:26.562Z,3.40
2023-02-12T22:27:08.197Z,3.10
2023-02-12T22:32:11.536Z,3.30
2023-02-12T22:34:41.305Z,3.30
2023-02-12T22:39:50.571Z,3.20
2023-02-12T22:44:54.523Z,3.30
2023-02-12T22:47:25.204Z,3.00
2023-02-12T22:50:13.203Z,2.90
2023-02-12T22:55:24.396Z,2.80
2023-02-12T23:00:30.245Z,2.60
2023-02-12T23:03:11.329Z,2.60
2023-02-12T23:05:42.539Z,2.60
2023-02-12T23:08:18.035Z,2.30
2023-02-12T23:10:53.390Z,2.50
2023-02-12T23:13:29.894Z,2.20
2023-02-12T23:18:36.686Z,2.40
2023-02-12T23:21:05.310Z,2.30
2023-02-12T23:26:09.581Z,2.30
2023-02-12T23:31:23.320Z,2.20
2023-02-12T23:36:26.104Z,2.40
2023-02-12T23:39:11.627Z,2.10
2023-02-12T23:41:48.832Z,2.10
2023-02-12T23:44:17.542Z,2.10
2023-02-12T23:46:48.385Z,2.10
2023-02-12T23:49:22.523Z,2.10
2023-02-12T23:54:30.846Z,2.10
2023-02-12T23:57:06.285Z,2.10
2023-02-12T23:59:56.608Z,2.10
